sensor_id;sensor_type;location;lat;lon;timestamp;pressure;altitude;pressure_sealevel;temperature;humidity
48156;BME280;35568;48.104;11.782;2023-04-30T00:01:59;95551.44;;;11.63;51.19
48156;BME280;35568;48.104;11.782;2023-04-30T00:04:26;95553.57;;;11.70;50.95
48156;BME280;35568;48.104;11.782;2023-04-30T00:06:53;95552.52;;;11.64;51.06
48156;BME280;35568;48.104;11.782;2023-04-30T00:09:20;95552.85;;;11.70;50.99
48156;BME280;35568;48.104;11.782;2023-04-30T00:11:47;95552.50;;;11.85;51.19
48156;BME280;35568;48.104;11.782;2023-04-30T00:14:14;95551.06;;;11.69;51.04
48156;BME280;35568;48.104;11.782;2023-04-30T00:16:41;95554.31;;;11.57;50.96
48156;BME280;35568;48.104;11.782;2023-04-30T00:19:08;95554.61;;;12.16;50.83
48156;BME280;35568;48.104;11.782;2023-04-30T00:21:35;95555.11;;;11.82;50.87
48156;BME280;35568;48.104;11.782;2023-04-30T00:24:02;95556.83;;;11.98;50.73
48156;BME280;35568;48.104;11.782;2023-04-30T00:26:29;95561.25;;;11.95;50.62
48156;BME280;35568;48.104;11.782;2023-04-30T00:28:56;95567.15;;;11.87;50.88
48156;BME280;35568;48.104;11.782;2023-04-30T00:31:23;95566.65;;;11.69;50.81
48156;BME280;35568;48.104;11.782;2023-04-30T00:33:50;95560.51;;;11.93;50.75
48156;BME280;35568;48.104;11.782;2023-04-30T00:36:17;95560.20;;;11.80;50.99
48156;BME280;35568;48.104;11.782;2023-04-30T00:38:43;95555.44;;;11.89;50.86
48156;BME280;35568;48.104;11.782;2023-04-30T00:41:10;95557.77;;;11.87;50.90
48156;BME280;35568;48.104;11.782;2023-04-30T00:43:37;95555.23;;;11.72;50.87
48156;BME280;35568;48.104;11.782;2023-04-30T00:46:04;95558.83;;;11.97;50.89
48156;BME280;35568;48.104;11.782;2023-04-30T00:48:31;95562.01;;;11.91;50.95
48156;BME280;35568;48.104;11.782;2023-04-30T00:50:59;95563.15;;;12.18;50.89
48156;BME280;35568;48.104;11.782;2023-04-30T00:53:26;95562.30;;;11.89;51.08
48156;BME280;35568;48.104;11.782;2023-04-30T00:55:53;95562.01;;;11.70;51.19
48156;BME280;35568;48.104;11.782;2023-04-30T00:58:21;95562.88;;;11.80;51.55
48156;BME280;35568;48.104;11.782;2023-04-30T01:00:49;95563.94;;;11.52;51.77
48156;BME280;35568;48.104;11.782;2023-04-30T01:03:16;95563.87;;;11.41;51.70
48156;BME280;35568;48.104;11.782;2023-04-30T01:05:43;95565.16;;;11.52;52.12
48156;BME280;35568;48.104;11.782;2023-04-30T01:08:10;95565.73;;;11.51;52.02
48156;BME280;35568;48.104;11.782;2023-04-30T01:10:43;95565.94;;;11.59;52.04
48156;BME280;35568;48.104;11.782;2023-04-30T01:13:16;95569.40;;;11.58;52.04
48156;BME280;35568;48.104;11.782;2023-04-30T01:15:52;95570.56;;;11.43;51.81
48156;BME280;35568;48.104;11.782;2023-04-30T01:18:24;95572.46;;;11.83;51.72
48156;BME280;35568;48.104;11.782;2023-04-30T01:20:57;95574.86;;;11.60;51.59
48156;BME280;35568;48.104;11.782;2023-04-30T01:23:36;95575.30;;;11.73;51.78
48156;BME280;35568;48.104;11.782;2023-04-30T01:26:12;95575.06;;;11.64;51.76
48156;BME280;35568;48.104;11.782;2023-04-30T01:28:41;95575.78;;;11.40;51.88
48156;BME280;35568;48.104;11.782;2023-04-30T01:31:12;95574.89;;;11.66;51.66
48156;BME280;35568;48.104;11.782;2023-04-30T01:33:40;95577.07;;;11.55;51.84
48156;BME280;35568;48.104;11.782;2023-04-30T01:36:17;95576.78;;;11.43;52.22
48156;BME280;35568;48.104;11.782;2023-04-30T01:38:56;95579.12;;;11.54;52.03
48156;BME280;35568;48.104;11.782;2023-04-30T01:41:30;95579.04;;;11.24;52.12
48156;BME280;35568;48.104;11.782;2023-04-30T01:48:15;95589.46;;;12.04;51.95
48156;BME280;35568;48.104;11.782;2023-04-30T01:50:50;95591.44;;;11.69;51.68
48156;BME280;35568;48.104;11.782;2023-04-30T01:53:20;95589.57;;;12.05;51.43
48156;BME280;35568;48.104;11.782;2023-04-30T01:55:53;95589.01;;;11.79;51.15
48156;BME280;35568;48.104;11.782;2023-04-30T01:58:23;95591.56;;;12.05;51.28
48156;BME280;35568;48.104;11.782;2023-04-30T02:00:50;95589.66;;;12.03;51.43
48156;BME280;35568;48.104;11.782;2023-04-30T02:03:17;95588.04;;;11.98;51.48
48156;BME280;35568;48.104;11.782;2023-04-30T02:05:44;95588.48;;;11.94;51.53
48156;BME280;35568;48.104;11.782;2023-04-30T02:08:10;95592.51;;;11.69;51.38
48156;BME280;35568;48.104;11.782;2023-04-30T02:10:37;95593.30;;;11.93;51.30
48156;BME280;35568;48.104;11.782;2023-04-30T02:13:04;95594.49;;;11.56;51.52
48156;BME280;35568;48.104;11.782;2023-04-30T02:15:31;95594.39;;;11.35;51.97
48156;BME280;35568;48.104;11.782;2023-04-30T02:17:58;95591.68;;;11.67;51.81
48156;BME280;35568;48.104;11.782;2023-04-30T02:20:24;95589.97;;;11.54;52.10
48156;BME280;35568;48.104;11.782;2023-04-30T02:22:51;95587.48;;;11.41;51.89
48156;BME280;35568;48.104;11.782;2023-04-30T02:25:18;95588.30;;;11.33;52.05
48156;BME280;35568;48.104;11.782;2023-04-30T02:27:45;95594.30;;;11.17;52.38
48156;BME280;35568;48.104;11.782;2023-04-30T02:30:12;95591.43;;;11.22;52.44
48156;BME280;35568;48.104;11.782;2023-04-30T02:32:39;95590.76;;;10.98;52.47
48156;BME280;35568;48.104;11.782;2023-04-30T02:35:07;95594.34;;;11.36;52.23
48156;BME280;35568;48.104;11.782;2023-04-30T02:37:34;95599.98;;;11.07;52.33
48156;BME280;35568;48.104;11.782;2023-04-30T02:40:01;95608.56;;;11.20;52.41
48156;BME280;35568;48.104;11.782;2023-04-30T02:42:28;95613.82;;;11.08;52.60
48156;BME280;35568;48.104;11.782;2023-04-30T02:44:55;95613.04;;;10.99;52.65
48156;BME280;35568;48.104;11.782;2023-04-30T02:47:22;95611.28;;;10.82;52.98
48156;BME280;35568;48.104;11.782;2023-04-30T02:49:48;95609.95;;;10.82;53.04
48156;BME280;35568;48.104;11.782;2023-04-30T02:52:15;95606.54;;;10.74;53.19
48156;BME280;35568;48.104;11.782;2023-04-30T02:54:42;95601.78;;;11.29;53.14
48156;BME280;35568;48.104;11.782;2023-04-30T02:57:09;95598.35;;;10.78;53.15
48156;BME280;35568;48.104;11.782;2023-04-30T02:59:36;95600.26;;;10.89;53.02
48156;BME280;35568;48.104;11.782;2023-04-30T03:03:01;95597.47;;;11.15;52.27
48156;BME280;35568;48.104;11.782;2023-04-30T03:05:27;95595.10;;;11.53;52.50
48156;BME280;35568;48.104;11.782;2023-04-30T03:07:54;95595.88;;;11.12;52.72
48156;BME280;35568;48.104;11.782;2023-04-30T03:10:21;95602.00;;;10.93;52.69
48156;BME280;35568;48.104;11.782;2023-04-30T03:12:48;95607.49;;;10.77;52.88
48156;BME280;35568;48.104;11.782;2023-04-30T03:15:15;95608.47;;;10.61;53.08
48156;BME280;35568;48.104;11.782;2023-04-30T03:17:42;95607.13;;;10.91;53.11
48156;BME280;35568;48.104;11.782;2023-04-30T03:20:10;95608.92;;;10.79;53.03
48156;BME280;35568;48.104;11.782;2023-04-30T03:22:37;95606.24;;;10.88;53.05
48156;BME280;35568;48.104;11.782;2023-04-30T03:25:05;95609.14;;;10.58;53.18
48156;BME280;35568;48.104;11.782;2023-04-30T03:27:32;95608.27;;;10.88;53.42
48156;BME280;35568;48.104;11.782;2023-04-30T03:29:59;95602.20;;;10.70;53.42
48156;BME280;35568;48.104;11.782;2023-04-30T03:32:25;95601.65;;;11.10;53.20
48156;BME280;35568;48.104;11.782;2023-04-30T03:34:52;95599.07;;;11.07;52.85
48156;BME280;35568;48.104;11.782;2023-04-30T03:37:19;95596.56;;;10.45;53.15
48156;BME280;35568;48.104;11.782;2023-04-30T03:39:46;95589.64;;;10.78;53.24
48156;BME280;35568;48.104;11.782;2023-04-30T03:42:13;95585.09;;;10.60;53.16
48156;BME280;35568;48.104;11.782;2023-04-30T03:44:40;95583.23;;;10.85;53.32
48156;BME280;35568;48.104;11.782;2023-04-30T03:47:06;95581.46;;;10.80;53.17
48156;BME280;35568;48.104;11.782;2023-04-30T03:49:33;95581.75;;;10.79;53.17
48156;BME280;35568;48.104;11.782;2023-04-30T03:52:00;95581.90;;;10.25;53.23
48156;BME280;35568;48.104;11.782;2023-04-30T03:54:26;95581.50;;;10.70;53.22
48156;BME280;35568;48.104;11.782;2023-04-30T03:56:53;95581.99;;;10.56;53.34
48156;BME280;35568;48.104;11.782;2023-04-30T03:59:20;95583.23;;;10.43;53.54
48156;BME280;35568;48.104;11.782;2023-04-30T04:01:46;95581.21;;;10.39;53.51
48156;BME280;35568;48.104;11.782;2023-04-30T04:04:13;95580.03;;;10.37;53.48
48156;BME280;35568;48.104;11.782;2023-04-30T04:06:40;95578.65;;;10.15;53.42
48156;BME280;35568;48.104;11.782;2023-04-30T04:09:08;95578.38;;;10.28;53.38
48156;BME280;35568;48.104;11.782;2023-04-30T04:11:35;95583.70;;;10.17;53.61
48156;BME280;35568;48.104;11.782;2023-04-30T04:14:02;95588.33;;;10.18;53.70
48156;BME280;35568;48.104;11.782;2023-04-30T04:16:29;95592.34;;;9.96;53.60
48156;BME280;35568;48.104;11.782;2023-04-30T04:18:56;95595.36;;;10.32;53.48
48156;BME280;35568;48.104;11.782;2023-04-30T04:21:23;95595.51;;;10.45;53.32
48156;BME280;35568;48.104;11.782;2023-04-30T04:23:50;95597.29;;;10.43;53.29
48156;BME280;35568;48.104;11.782;2023-04-30T04:26:17;95600.55;;;10.19;53.37
48156;BME280;35568;48.104;11.782;2023-04-30T04:28:44;95601.14;;;10.59;53.18
48156;BME280;35568;48.104;11.782;2023-04-30T04:31:11;95602.74;;;10.58;53.21
48156;BME280;35568;48.104;11.782;2023-04-30T04:33:38;95605.27;;;10.56;53.32
48156;BME280;35568;48.104;11.782;2023-04-30T04:36:05;95606.64;;;10.45;52.87
48156;BME280;35568;48.104;11.782;2023-04-30T04:38:32;95609.00;;;10.61;52.72
48156;BME280;35568;48.104;11.782;2023-04-30T04:40:59;95608.81;;;11.03;52.50
48156;BME280;35568;48.104;11.782;2023-04-30T04:43:26;95611.32;;;10.80;52.62
48156;BME280;35568;48.104;11.782;2023-04-30T04:45:53;95615.68;;;10.82;52.42
48156;BME280;35568;48.104;11.782;2023-04-30T04:48:20;95616.76;;;10.95;52.40
48156;BME280;35568;48.104;11.782;2023-04-30T04:50:47;95616.40;;;11.37;52.21
48156;BME280;35568;48.104;11.782;2023-04-30T04:53:13;95614.51;;;10.82;52.33
48156;BME280;35568;48.104;11.782;2023-04-30T04:55:40;95613.55;;;10.74;52.20
48156;BME280;35568;48.104;11.782;2023-04-30T04:58:07;95611.95;;;10.92;52.10
48156;BME280;35568;48.104;11.782;2023-04-30T05:00:34;95615.94;;;10.95;52.03
48156;BME280;35568;48.104;11.782;2023-04-30T05:03:01;95612.93;;;10.85;52.00
48156;BME280;35568;48.104;11.782;2023-04-30T05:05:28;95616.79;;;11.15;52.16
48156;BME280;35568;48.104;11.782;2023-04-30T05:07:55;95617.14;;;10.87;52.32
48156;BME280;35568;48.104;11.782;2023-04-30T05:10:22;95617.49;;;10.93;51.86
48156;BME280;35568;48.104;11.782;2023-04-30T05:12:49;95622.66;;;10.97;51.96
48156;BME280;35568;48.104;11.782;2023-04-30T05:15:16;95623.13;;;11.09;51.74
48156;BME280;35568;48.104;11.782;2023-04-30T05:17:42;95623.26;;;11.08;51.94
48156;BME280;35568;48.104;11.782;2023-04-30T05:20:11;95627.43;;;11.32;51.58
48156;BME280;35568;48.104;11.782;2023-04-30T05:22:38;95631.64;;;11.29;51.54
48156;BME280;35568;48.104;11.782;2023-04-30T05:25:05;95636.02;;;11.18;51.58
48156;BME280;35568;48.104;11.782;2023-04-30T05:27:32;95640.38;;;11.54;50.99
48156;BME280;35568;48.104;11.782;2023-04-30T05:30:00;95641.31;;;11.78;50.90
48156;BME280;35568;48.104;11.782;2023-04-30T05:32:27;95643.62;;;10.72;50.61
48156;BME280;35568;48.104;11.782;2023-04-30T05:34:53;95643.69;;;12.14;49.44
48156;BME280;35568;48.104;11.782;2023-04-30T05:37:20;95640.67;;;12.19;49.61
48156;BME280;35568;48.104;11.782;2023-04-30T05:39:47;95643.09;;;11.83;49.75
48156;BME280;35568;48.104;11.782;2023-04-30T05:42:15;95642.02;;;11.29;49.84
48156;BME280;35568;48.104;11.782;2023-04-30T05:44:42;95641.72;;;12.11;48.95
48156;BME280;35568;48.104;11.782;2023-04-30T05:47:08;95644.10;;;12.02;49.03
48156;BME280;35568;48.104;11.782;2023-04-30T05:49:35;95643.81;;;11.95;49.36
48156;BME280;35568;48.104;11.782;2023-04-30T05:52:02;95644.80;;;11.87;49.49
48156;BME280;35568;48.104;11.782;2023-04-30T05:54:29;95644.01;;;11.98;49.30
48156;BME280;35568;48.104;11.782;2023-04-30T05:56:57;95641.45;;;12.51;49.31
48156;BME280;35568;48.104;11.782;2023-04-30T05:59:24;95639.36;;;12.11;48.85
48156;BME280;35568;48.104;11.782;2023-04-30T06:01:51;95640.05;;;12.48;48.98
48156;BME280;35568;48.104;11.782;2023-04-30T06:04:18;95637.26;;;12.54;48.73
48156;BME280;35568;48.104;11.782;2023-04-30T06:06:44;95637.98;;;12.55;48.13
48156;BME280;35568;48.104;11.782;2023-04-30T06:09:12;95639.68;;;12.77;48.28
48156;BME280;35568;48.104;11.782;2023-04-30T06:11:39;95641.69;;;12.70;48.31
48156;BME280;35568;48.104;11.782;2023-04-30T06:14:06;95642.39;;;12.94;47.99
48156;BME280;35568;48.104;11.782;2023-04-30T06:16:32;95643.55;;;13.06;47.59
48156;BME280;35568;48.104;11.782;2023-04-30T06:18:59;95642.97;;;12.95;47.25
48156;BME280;35568;48.104;11.782;2023-04-30T06:21:26;95640.48;;;13.40;46.85
48156;BME280;35568;48.104;11.782;2023-04-30T06:23:53;95637.18;;;13.59;46.51
48156;BME280;35568;48.104;11.782;2023-04-30T06:26:20;95637.78;;;13.48;45.97
48156;BME280;35568;48.104;11.782;2023-04-30T06:28:47;95636.58;;;13.12;45.85
48156;BME280;35568;48.104;11.782;2023-04-30T06:31:14;95635.51;;;13.30;45.32
48156;BME280;35568;48.104;11.782;2023-04-30T06:33:41;95635.33;;;13.97;45.07
48156;BME280;35568;48.104;11.782;2023-04-30T06:36:08;95634.33;;;13.46;44.79
48156;BME280;35568;48.104;11.782;2023-04-30T06:38:35;95633.43;;;13.44;44.66
48156;BME280;35568;48.104;11.782;2023-04-30T06:41:02;95631.79;;;14.03;44.17
48156;BME280;35568;48.104;11.782;2023-04-30T06:43:28;95631.62;;;14.15;43.78
48156;BME280;35568;48.104;11.782;2023-04-30T06:45:55;95633.45;;;14.34;43.49
48156;BME280;35568;48.104;11.782;2023-04-30T06:48:22;95627.99;;;14.82;43.26
48156;BME280;35568;48.104;11.782;2023-04-30T06:50:49;95630.99;;;14.22;43.27
48156;BME280;35568;48.104;11.782;2023-04-30T06:53:16;95628.45;;;13.86;43.39
48156;BME280;35568;48.104;11.782;2023-04-30T06:55:43;95629.27;;;14.54;42.82
48156;BME280;35568;48.104;11.782;2023-04-30T06:58:10;95632.56;;;14.72;42.72
48156;BME280;35568;48.104;11.782;2023-04-30T07:00:37;95633.91;;;14.79;42.40
48156;BME280;35568;48.104;11.782;2023-04-30T07:03:04;95631.43;;;15.20;42.04
48156;BME280;35568;48.104;11.782;2023-04-30T07:05:31;95627.08;;;15.72;41.31
48156;BME280;35568;48.104;11.782;2023-04-30T07:08:00;95627.50;;;15.93;40.85
48156;BME280;35568;48.104;11.782;2023-04-30T07:10:27;95625.86;;;16.41;39.91
48156;BME280;35568;48.104;11.782;2023-04-30T07:12:55;95626.06;;;17.26;38.89
48156;BME280;35568;48.104;11.782;2023-04-30T07:15:22;95625.41;;;17.19;38.44
48156;BME280;35568;48.104;11.782;2023-04-30T07:17:48;95622.22;;;17.01;38.23
48156;BME280;35568;48.104;11.782;2023-04-30T07:20:15;95620.34;;;16.24;39.06
48156;BME280;35568;48.104;11.782;2023-04-30T07:22:42;95621.43;;;15.77;39.80
48156;BME280;35568;48.104;11.782;2023-04-30T07:25:10;95623.62;;;15.84;40.23
48156;BME280;35568;48.104;11.782;2023-04-30T07:27:38;95627.63;;;16.14;40.15
48156;BME280;35568;48.104;11.782;2023-04-30T07:30:06;95628.62;;;15.41;40.44
48156;BME280;35568;48.104;11.782;2023-04-30T07:32:34;95625.43;;;15.37;40.55
48156;BME280;35568;48.104;11.782;2023-04-30T07:35:02;95626.21;;;15.83;40.09
48156;BME280;35568;48.104;11.782;2023-04-30T07:37:29;95624.84;;;16.05;40.43
48156;BME280;35568;48.104;11.782;2023-04-30T07:39:56;95626.37;;;16.15;40.24
48156;BME280;35568;48.104;11.782;2023-04-30T07:42:24;95626.51;;;15.66;40.33
48156;BME280;35568;48.104;11.782;2023-04-30T07:44:51;95624.95;;;15.76;40.59
48156;BME280;35568;48.104;11.782;2023-04-30T07:47:18;95622.71;;;15.57;40.98
48156;BME280;35568;48.104;11.782;2023-04-30T07:49:45;95622.91;;;15.40;41.21
48156;BME280;35568;48.104;11.782;2023-04-30T07:52:12;95618.81;;;15.48;41.50
48156;BME280;35568;48.104;11.782;2023-04-30T07:54:39;95621.39;;;15.31;41.95
48156;BME280;35568;48.104;11.782;2023-04-30T07:57:06;95621.75;;;16.26;40.79
48156;BME280;35568;48.104;11.782;2023-04-30T07:59:33;95621.23;;;15.96;40.18
48156;BME280;35568;48.104;11.782;2023-04-30T08:02:00;95621.42;;;16.50;39.80
48156;BME280;35568;48.104;11.782;2023-04-30T08:04:27;95622.51;;;16.69;39.85
48156;BME280;35568;48.104;11.782;2023-04-30T08:06:54;95619.14;;;16.51;39.29
48156;BME280;35568;48.104;11.782;2023-04-30T08:09:21;95616.79;;;16.45;39.96
48156;BME280;35568;48.104;11.782;2023-04-30T08:11:47;95620.40;;;16.67;39.82
48156;BME280;35568;48.104;11.782;2023-04-30T08:14:14;95619.30;;;16.33;39.79
48156;BME280;35568;48.104;11.782;2023-04-30T08:16:41;95622.98;;;16.40;39.70
48156;BME280;35568;48.104;11.782;2023-04-30T08:19:08;95623.42;;;16.43;40.03
48156;BME280;35568;48.104;11.782;2023-04-30T08:21:35;95621.59;;;16.16;40.22
48156;BME280;35568;48.104;11.782;2023-04-30T08:24:02;95622.64;;;16.52;40.51
48156;BME280;35568;48.104;11.782;2023-04-30T08:26:29;95618.39;;;16.37;39.97
48156;BME280;35568;48.104;11.782;2023-04-30T08:28:56;95616.55;;;16.73;39.62
48156;BME280;35568;48.104;11.782;2023-04-30T08:31:22;95613.57;;;16.68;39.62
48156;BME280;35568;48.104;11.782;2023-04-30T08:33:49;95612.78;;;16.84;38.99
48156;BME280;35568;48.104;11.782;2023-04-30T08:36:16;95612.37;;;16.66;38.89
48156;BME280;35568;48.104;11.782;2023-04-30T08:38:43;95609.28;;;16.47;39.05
48156;BME280;35568;48.104;11.782;2023-04-30T08:41:12;95615.20;;;16.16;39.55
48156;BME280;35568;48.104;11.782;2023-04-30T08:43:42;95617.07;;;16.63;40.07
48156;BME280;35568;48.104;11.782;2023-04-30T08:46:10;95613.97;;;16.53;39.00
48156;BME280;35568;48.104;11.782;2023-04-30T08:48:37;95615.51;;;16.88;39.16
48156;BME280;35568;48.104;11.782;2023-04-30T08:51:05;95617.67;;;16.97;38.51
48156;BME280;35568;48.104;11.782;2023-04-30T08:53:35;95617.05;;;17.58;38.40
48156;BME280;35568;48.104;11.782;2023-04-30T08:56:02;95614.95;;;17.79;37.62
48156;BME280;35568;48.104;11.782;2023-04-30T08:58:29;95622.46;;;18.51;37.45
48156;BME280;35568;48.104;11.782;2023-04-30T09:00:57;95622.61;;;18.73;35.80
48156;BME280;35568;48.104;11.782;2023-04-30T09:03:25;95623.04;;;17.80;36.10
48156;BME280;35568;48.104;11.782;2023-04-30T09:05:53;95622.26;;;17.22;37.41
48156;BME280;35568;48.104;11.782;2023-04-30T09:08:40;95625.20;;;17.02;37.64
48156;BME280;35568;48.104;11.782;2023-04-30T09:11:20;95623.20;;;17.83;36.57
48156;BME280;35568;48.104;11.782;2023-04-30T09:13:48;95626.58;;;18.46;35.97
48156;BME280;35568;48.104;11.782;2023-04-30T09:16:15;95628.75;;;18.63;35.13
48156;BME280;35568;48.104;11.782;2023-04-30T09:18:43;95630.61;;;18.68;34.58
48156;BME280;35568;48.104;11.782;2023-04-30T09:21:09;95627.50;;;18.18;35.11
48156;BME280;35568;48.104;11.782;2023-04-30T09:23:36;95628.03;;;18.37;35.55
48156;BME280;35568;48.104;11.782;2023-04-30T09:26:20;95626.94;;;18.03;35.69
48156;BME280;35568;48.104;11.782;2023-04-30T09:28:56;95628.69;;;18.08;36.03
48156;BME280;35568;48.104;11.782;2023-04-30T09:31:23;95630.03;;;17.35;36.90
48156;BME280;35568;48.104;11.782;2023-04-30T09:33:49;95628.36;;;17.39;36.63
48156;BME280;35568;48.104;11.782;2023-04-30T09:36:16;95629.92;;;17.18;37.02
48156;BME280;35568;48.104;11.782;2023-04-30T09:38:43;95629.99;;;16.61;37.95
48156;BME280;35568;48.104;11.782;2023-04-30T09:41:20;95626.40;;;16.70;37.83
48156;BME280;35568;48.104;11.782;2023-04-30T09:43:48;95628.41;;;16.45;37.71
48156;BME280;35568;48.104;11.782;2023-04-30T09:46:17;95633.28;;;16.24;38.46
48156;BME280;35568;48.104;11.782;2023-04-30T09:48:45;95630.33;;;16.85;38.34
48156;BME280;35568;48.104;11.782;2023-04-30T09:51:11;95633.26;;;16.76;38.20
48156;BME280;35568;48.104;11.782;2023-04-30T09:53:39;95630.46;;;17.14;37.13
48156;BME280;35568;48.104;11.782;2023-04-30T09:56:11;95625.78;;;16.77;37.82
48156;BME280;35568;48.104;11.782;2023-04-30T09:58:38;95626.17;;;17.10;37.49
48156;BME280;35568;48.104;11.782;2023-04-30T10:01:10;95627.99;;;17.42;37.22
48156;BME280;35568;48.104;11.782;2023-04-30T10:03:39;95624.68;;;17.33;37.70
48156;BME280;35568;48.104;11.782;2023-04-30T10:06:06;95621.65;;;17.29;37.30
48156;BME280;35568;48.104;11.782;2023-04-30T10:08:39;95623.31;;;17.15;37.15
48156;BME280;35568;48.104;11.782;2023-04-30T10:11:07;95626.46;;;16.97;37.85
48156;BME280;35568;48.104;11.782;2023-04-30T10:13:39;95627.84;;;16.83;37.32
48156;BME280;35568;48.104;11.782;2023-04-30T10:16:14;95624.33;;;16.85;38.20
48156;BME280;35568;48.104;11.782;2023-04-30T10:18:42;95621.26;;;16.94;38.30
48156;BME280;35568;48.104;11.782;2023-04-30T10:21:12;95618.87;;;16.75;38.01
48156;BME280;35568;48.104;11.782;2023-04-30T10:23:41;95619.12;;;16.84;38.31
48156;BME280;35568;48.104;11.782;2023-04-30T10:26:09;95615.94;;;16.84;37.93
48156;BME280;35568;48.104;11.782;2023-04-30T10:28:36;95611.31;;;17.32;37.57
48156;BME280;35568;48.104;11.782;2023-04-30T10:31:05;95609.24;;;17.09;36.93
48156;BME280;35568;48.104;11.782;2023-04-30T10:33:39;95604.83;;;17.12;37.08
48156;BME280;35568;48.104;11.782;2023-04-30T10:36:12;95603.93;;;17.27;37.13
48156;BME280;35568;48.104;11.782;2023-04-30T10:38:40;95601.93;;;17.03;37.22
48156;BME280;35568;48.104;11.782;2023-04-30T10:41:06;95598.68;;;16.65;37.42
48156;BME280;35568;48.104;11.782;2023-04-30T10:43:35;95592.90;;;16.98;37.14
48156;BME280;35568;48.104;11.782;2023-04-30T10:46:02;95591.99;;;17.26;37.07
48156;BME280;35568;48.104;11.782;2023-04-30T10:48:32;95593.01;;;17.72;36.64
48156;BME280;35568;48.104;11.782;2023-04-30T10:51:00;95589.78;;;18.59;35.98
48156;BME280;35568;48.104;11.782;2023-04-30T10:53:30;95588.26;;;18.47;34.00
48156;BME280;35568;48.104;11.782;2023-04-30T10:55:59;95579.40;;;19.06;34.05
48156;BME280;35568;48.104;11.782;2023-04-30T10:58:29;95577.26;;;19.25;32.98
48156;BME280;35568;48.104;11.782;2023-04-30T11:01:06;95570.90;;;19.62;32.29
48156;BME280;35568;48.104;11.782;2023-04-30T11:03:34;95566.69;;;20.34;31.28
48156;BME280;35568;48.104;11.782;2023-04-30T11:06:07;95566.58;;;21.47;30.28
48156;BME280;35568;48.104;11.782;2023-04-30T11:08:36;95563.86;;;21.46;29.50
48156;BME280;35568;48.104;11.782;2023-04-30T11:11:03;95559.91;;;21.39;29.70
48156;BME280;35568;48.104;11.782;2023-04-30T11:13:38;95558.37;;;21.58;29.46
48156;BME280;35568;48.104;11.782;2023-04-30T11:16:05;95560.39;;;22.71;28.56
48156;BME280;35568;48.104;11.782;2023-04-30T11:18:33;95551.50;;;21.93;28.76
48156;BME280;35568;48.104;11.782;2023-04-30T11:21:01;95555.82;;;22.45;28.48
48156;BME280;35568;48.104;11.782;2023-04-30T11:23:28;95554.96;;;22.77;28.61
48156;BME280;35568;48.104;11.782;2023-04-30T11:25:55;95550.26;;;23.02;28.04
48156;BME280;35568;48.104;11.782;2023-04-30T11:28:23;95548.39;;;22.70;28.97
48156;BME280;35568;48.104;11.782;2023-04-30T11:30:51;95550.60;;;22.08;29.56
48156;BME280;35568;48.104;11.782;2023-04-30T11:33:19;95544.87;;;21.78;29.49
48156;BME280;35568;48.104;11.782;2023-04-30T11:35:47;95543.20;;;20.50;30.18
48156;BME280;35568;48.104;11.782;2023-04-30T11:38:16;95540.14;;;20.37;30.98
48156;BME280;35568;48.104;11.782;2023-04-30T11:40:44;95546.14;;;20.06;31.48
48156;BME280;35568;48.104;11.782;2023-04-30T11:43:21;95549.98;;;19.51;31.63
48156;BME280;35568;48.104;11.782;2023-04-30T11:46:07;95546.80;;;19.24;32.06
48156;BME280;35568;48.104;11.782;2023-04-30T11:48:36;95546.16;;;19.50;32.27
48156;BME280;35568;48.104;11.782;2023-04-30T11:51:04;95545.17;;;19.14;32.42
48156;BME280;35568;48.104;11.782;2023-04-30T11:53:31;95545.37;;;19.48;32.28
48156;BME280;35568;48.104;11.782;2023-04-30T11:56:02;95546.20;;;19.73;32.65
48156;BME280;35568;48.104;11.782;2023-04-30T11:58:33;95545.26;;;19.81;32.15
48156;BME280;35568;48.104;11.782;2023-04-30T12:01:00;95545.08;;;19.21;32.70
48156;BME280;35568;48.104;11.782;2023-04-30T12:03:28;95543.63;;;19.49;32.32
48156;BME280;35568;48.104;11.782;2023-04-30T12:05:55;95546.97;;;18.74;32.61
48156;BME280;35568;48.104;11.782;2023-04-30T12:08:22;95538.04;;;18.52;33.54
48156;BME280;35568;48.104;11.782;2023-04-30T12:10:49;95539.22;;;18.75;33.08
48156;BME280;35568;48.104;11.782;2023-04-30T12:13:16;95538.49;;;18.60;33.21
48156;BME280;35568;48.104;11.782;2023-04-30T12:15:56;95536.86;;;19.15;32.78
48156;BME280;35568;48.104;11.782;2023-04-30T12:18:23;95537.69;;;19.18;32.80
48156;BME280;35568;48.104;11.782;2023-04-30T12:20:51;95537.80;;;18.92;32.85
48156;BME280;35568;48.104;11.782;2023-04-30T12:23:18;95538.07;;;18.65;33.67
48156;BME280;35568;48.104;11.782;2023-04-30T12:25:45;95537.12;;;18.79;33.28
48156;BME280;35568;48.104;11.782;2023-04-30T12:28:12;95533.78;;;18.48;32.94
48156;BME280;35568;48.104;11.782;2023-04-30T12:30:41;95538.93;;;18.48;33.17
48156;BME280;35568;48.104;11.782;2023-04-30T12:33:09;95537.44;;;19.00;32.99
48156;BME280;35568;48.104;11.782;2023-04-30T12:35:41;95534.57;;;19.04;32.93
48156;BME280;35568;48.104;11.782;2023-04-30T12:38:08;95532.78;;;18.91;33.44
48156;BME280;35568;48.104;11.782;2023-04-30T12:40:36;95534.18;;;18.57;33.17
48156;BME280;35568;48.104;11.782;2023-04-30T12:43:04;95526.06;;;18.53;33.59
48156;BME280;35568;48.104;11.782;2023-04-30T12:45:49;95532.01;;;18.55;33.04
48156;BME280;35568;48.104;11.782;2023-04-30T12:48:17;95528.21;;;18.75;33.52
48156;BME280;35568;48.104;11.782;2023-04-30T12:50:52;95526.72;;;18.89;33.23
48156;BME280;35568;48.104;11.782;2023-04-30T12:53:20;95524.60;;;19.17;32.68
48156;BME280;35568;48.104;11.782;2023-04-30T12:56:06;95522.28;;;20.14;32.10
48156;BME280;35568;48.104;11.782;2023-04-30T12:58:33;95518.66;;;20.53;30.47
48156;BME280;35568;48.104;11.782;2023-04-30T13:01:00;95511.47;;;21.28;30.14